Genoa Express — VRLX5 — position and weather

sailwx.info

Track history (hours):
 
Tides and Currents Weather Stations Pressure Air Temp Water Temp Dewpoint Dewpoint Depression Visibility Wind Speed Wind Dir Waves Ship Positions

Genoa Express

Last reported at 2018-Aug-19 22:17 UTC. Time now 2018-Aug-19 22:54 UTC.
Position N 36°05' W 005°08'.

Length 228 m; draft 9.3 m.

Type: Ship (hazmat cat A). MMSI: 477694200.

Date/timePositionNaut miles runAvg speedWind from/ knotsBaromVisibWave heightAir tempDewpointWater temp
2018-Aug-19 22:17N 36°05' W 005°08'412.6
2018-Aug-19 22:01N 36°05' W 005°12'714.4
2018-Aug-19 21:30N 36°04' W 005°21'5 9.6
2018-Aug-19 21:00N 36°09' W 005°24'1 0.9
2018-Aug-19 19:57N 36°10' W 005°24'0 0.0
2018-Aug-19 19:30N 36°10' W 005°24'0 0.0
2018-Aug-19 19:00N 36°10' W 005°24'0 0.0
2018-Aug-19 18:30N 36°10' W 005°24'0 0.0
2018-Aug-19 18:00N 36°10' W 005°24'0 0.1
2018-Aug-19 17:30N 36°10' W 005°24'0 0.0
2018-Aug-19 17:00N 36°10' W 005°24'0 0.1
2018-Aug-19 16:24N 36°10' W 005°24'0 0.0
2018-Aug-19 16:00N 36°10' W 005°24'0 0.0
2018-Aug-19 15:27N 36°10' W 005°24'0 0.0
2018-Aug-19 15:00N 36°10' W 005°24'0 0.0
2018-Aug-19 14:27N 36°10' W 005°24'0 0.0
2018-Aug-19 14:00N 36°10' W 005°24'0 0.0
2018-Aug-19 13:30N 36°10' W 005°24'0 0.0
2018-Aug-19 13:00N 36°10' W 005°24'0 0.0
2018-Aug-19 12:30N 36°10' W 005°24'0 0.0
2018-Aug-19 12:00N 36°10' W 005°24'0 0.1
2018-Aug-19 11:30N 36°10' W 005°23'3 5.0
2018-Aug-19 10:59N 36°07' W 005°25'0 0.1
2018-Aug-19 10:29N 36°07' W 005°25'0 0.0
2018-Aug-19 09:59N 36°07' W 005°25'0 0.0
2018-Aug-19 09:30N 36°07' W 005°25'0 0.0
2018-Aug-19 08:59N 36°07' W 005°25'0 0.1
2018-Aug-19 08:29N 36°07' W 005°25'0 0.1
2018-Aug-19 07:56N 36°07' W 005°25'0 0.0
2018-Aug-19 07:29N 36°07' W 005°25'0 0.0
2018-Aug-19 06:56N 36°07' W 005°25'0 0.1
2018-Aug-19 06:29N 36°07' W 005°25'0 0.0
2018-Aug-19 05:59N 36°08' W 005°25'0 0.1
2018-Aug-19 05:29N 36°08' W 005°25'0 0.0
2018-Aug-19 04:59N 36°08' W 005°25'0 0.1
2018-Aug-19 04:29N 36°08' W 005°25'0 0.0
2018-Aug-19 03:59N 36°08' W 005°25'0 0.6
2018-Aug-19 03:31N 36°08' W 005°24'1 2.9
2018-Aug-19 03:01N 36°06' W 005°23'2 3.8
2018-Aug-19 02:31N 36°04' W 005°23'2 3.4
2018-Aug-19 02:00N 36°03' W 005°22'4 7.7
2018-Aug-19 01:30N 35°59' W 005°23'4 7.7
2018-Aug-19 01:01N 35°58' W 005°27'611.3
2018-Aug-19 00:28N 35°56' W 005°35'613.0
2018-Aug-18 23:59N 35°55' W 005°42'713.4
2018-Aug-18 23:29N 35°54' W 005°50'2413.8
2018-Aug-18 21:43N 35°54' W 006°21'314.2
2018-Aug-18 21:30N 35°55' W 006°24'6014.5
2018-Aug-18 17:22N 36°04' W 007°37'1316.6
2018-Aug-18 16:34N 36°06' W 007°54'3417.5
2018-Aug-18 14:38N 36°12' W 008°35'419.3
2018-Aug-18 14:25N 36°13' W 008°40'1319.1
2018-Aug-18 13:44N 36°15' W 008°56'519.6
2018-Aug-18 13:28N 36°16' W 009°02'919.5
2018-Aug-18 13:00N 36°18' W 009°13'5619.4
2018-Aug-18 10:05N 36°41' W 010°17'419.5
2018-Aug-18 09:53N 36°43' W 010°21'819.8
2018-Aug-18 09:30N 36°47' W 010°29'1020.0
2018-Aug-18 09:00N 36°52' W 010°40'1119.7
2018-Aug-18 08:28N 36°57' W 010°52'1219.5
2018-Aug-18 07:52N 37°02' W 011°05'1819.5
2018-Aug-18 06:56N 37°11' W 011°25'  
2018-Aug-11 20:21N 46°49' W 071°11'8712.7
2018-Aug-11 13:33N 46°06' W 072°60'113.6
2018-Aug-11 13:29N 46°05' W 073°00'612.7
2018-Aug-11 13:00N 46°03' W 073°09'612.3
2018-Aug-11 12:30N 45°57' W 073°12'713.1
2018-Aug-11 12:00N 45°51' W 073°16'713.1
2018-Aug-11 11:30N 45°46' W 073°22'713.2
2018-Aug-11 11:00N 45°41' W 073°27'710.1
2018-Aug-11 10:20N 45°34' W 073°30'  
Track history (hours):
 
Tides and Currents Weather Stations Pressure Air Temp Water Temp Dewpoint Dewpoint Depression Visibility Wind Speed Wind Dir Waves Ship Positions

Genoa Express

Last reported at 2018-Aug-19 22:17 UTC. Time now 2018-Aug-19 22:54 UTC.
Position N 36°05' W 005°08'.

Length 228 m; draft 9.3 m.

Type: Ship (hazmat cat A). MMSI: 477694200.

Date/timePositionNaut miles runAvg speedWind from/ knotsBaromVisibWave heightAir tempDewpointWater temp
2018-Aug-19 22:17N 36°05' W 005°08'412.6
2018-Aug-19 22:01N 36°05' W 005°12'714.4
2018-Aug-19 21:30N 36°04' W 005°21'5 9.6
2018-Aug-19 21:00N 36°09' W 005°24'1 0.9
2018-Aug-19 19:57N 36°10' W 005°24'0 0.0
2018-Aug-19 19:30N 36°10' W 005°24'0 0.0
2018-Aug-19 19:00N 36°10' W 005°24'0 0.0
2018-Aug-19 18:30N 36°10' W 005°24'0 0.0
2018-Aug-19 18:00N 36°10' W 005°24'0 0.1
2018-Aug-19 17:30N 36°10' W 005°24'0 0.0
2018-Aug-19 17:00N 36°10' W 005°24'0 0.1
2018-Aug-19 16:24N 36°10' W 005°24'0 0.0
2018-Aug-19 16:00N 36°10' W 005°24'0 0.0
2018-Aug-19 15:27N 36°10' W 005°24'0 0.0
2018-Aug-19 15:00N 36°10' W 005°24'0 0.0
2018-Aug-19 14:27N 36°10' W 005°24'0 0.0
2018-Aug-19 14:00N 36°10' W 005°24'0 0.0
2018-Aug-19 13:30N 36°10' W 005°24'0 0.0
2018-Aug-19 13:00N 36°10' W 005°24'0 0.0
2018-Aug-19 12:30N 36°10' W 005°24'0 0.0
2018-Aug-19 12:00N 36°10' W 005°24'0 0.1
2018-Aug-19 11:30N 36°10' W 005°23'3 5.0
2018-Aug-19 10:59N 36°07' W 005°25'0 0.1
2018-Aug-19 10:29N 36°07' W 005°25'0 0.0
2018-Aug-19 09:59N 36°07' W 005°25'0 0.0
2018-Aug-19 09:30N 36°07' W 005°25'0 0.0
2018-Aug-19 08:59N 36°07' W 005°25'0 0.1
2018-Aug-19 08:29N 36°07' W 005°25'0 0.1
2018-Aug-19 07:56N 36°07' W 005°25'0 0.0
2018-Aug-19 07:29N 36°07' W 005°25'0 0.0
2018-Aug-19 06:56N 36°07' W 005°25'0 0.1
2018-Aug-19 06:29N 36°07' W 005°25'0 0.0
2018-Aug-19 05:59N 36°08' W 005°25'0 0.1
2018-Aug-19 05:29N 36°08' W 005°25'0 0.0
2018-Aug-19 04:59N 36°08' W 005°25'0 0.1
2018-Aug-19 04:29N 36°08' W 005°25'0 0.0
2018-Aug-19 03:59N 36°08' W 005°25'0 0.6
2018-Aug-19 03:31N 36°08' W 005°24'1 2.9
2018-Aug-19 03:01N 36°06' W 005°23'2 3.8
2018-Aug-19 02:31N 36°04' W 005°23'2 3.4
2018-Aug-19 02:00N 36°03' W 005°22'4 7.7
2018-Aug-19 01:30N 35°59' W 005°23'4 7.7
2018-Aug-19 01:01N 35°58' W 005°27'611.3
2018-Aug-19 00:28N 35°56' W 005°35'613.0
2018-Aug-18 23:59N 35°55' W 005°42'713.4
2018-Aug-18 23:29N 35°54' W 005°50'2413.8
2018-Aug-18 21:43N 35°54' W 006°21'314.2
2018-Aug-18 21:30N 35°55' W 006°24'6014.5
2018-Aug-18 17:22N 36°04' W 007°37'1316.6
2018-Aug-18 16:34N 36°06' W 007°54'3417.5
2018-Aug-18 14:38N 36°12' W 008°35'419.3
2018-Aug-18 14:25N 36°13' W 008°40'1319.1
2018-Aug-18 13:44N 36°15' W 008°56'519.6
2018-Aug-18 13:28N 36°16' W 009°02'919.5
2018-Aug-18 13:00N 36°18' W 009°13'5619.4
2018-Aug-18 10:05N 36°41' W 010°17'419.5
2018-Aug-18 09:53N 36°43' W 010°21'819.8
2018-Aug-18 09:30N 36°47' W 010°29'1020.0
2018-Aug-18 09:00N 36°52' W 010°40'1119.7
2018-Aug-18 08:28N 36°57' W 010°52'1219.5
2018-Aug-18 07:52N 37°02' W 011°05'1819.5
2018-Aug-18 06:56N 37°11' W 011°25'  
2018-Aug-11 20:21N 46°49' W 071°11'8712.7
2018-Aug-11 13:33N 46°06' W 072°60'113.6
2018-Aug-11 13:29N 46°05' W 073°00'612.7
2018-Aug-11 13:00N 46°03' W 073°09'612.3
2018-Aug-11 12:30N 45°57' W 073°12'713.1
2018-Aug-11 12:00N 45°51' W 073°16'713.1
2018-Aug-11 11:30N 45°46' W 073°22'713.2
2018-Aug-11 11:00N 45°41' W 073°27'710.1
2018-Aug-11 10:20N 45°34' W 073°30'  

Dump ship's entire track history